Latest Weather Observations for McCluer Island

IDD60801

Issued at 10:35 pm CST Saturday 25 October 2014 (issued every 30 minutes, with the page automatically refreshed every 10 minutes)

About weather observations | Map of weather stations | Latest weather observations for NT | Other Formats
Station Details ID: 014274 Name: MCCLUER ISLAND Lat: -11.05 Lon: 132.98 Height: 1.4 m
Data from the previous 72 hours. | See also: Recent months at McCluer Island
Date/Time
CST
Temp
°C
App
Temp
°C
Dew
Point
Rel
Hum
%
Delta-T
°C
Wind Press
QNH
hPa
Press
MSL
hPa
Rain
since 9 am
mm
Dir
 
Spd
km/h
Gust
km/h
Spd
kts
Gust
kts
25/10:30pm 27.2 30.0 25.8 92 1.0 NE 22 28 12 15 1014.0 - 0.0
25/10:00pm 27.4 29.7 25.6 90 1.3 ENE 24 28 13 15 1013.6 - 0.0
25/09:30pm 27.4 29.4 25.2 88 1.5 NE 24 28 13 15 1013.2 - 0.0
25/09:00pm 27.4 28.9 25.0 87 1.7 NE 26 32 14 17 1012.8 1012.8 0.0
25/08:30pm 27.5 28.7 25.1 87 1.7 NE 28 33 15 18 1012.5 - 0.0
25/08:00pm 27.5 28.3 25.1 87 1.7 NE 30 35 16 19 1012.2 - 0.0
25/07:30pm 27.4 28.0 24.7 85 1.9 NE 30 32 16 17 1012.0 - 0.0
25/07:00pm 27.5 28.6 24.9 86 1.8 NE 28 32 15 17 1011.8 - 0.0
25/06:30pm 27.7 29.3 25.7 89 1.4 ENE 28 33 15 18 1011.8 - 0.0
25/06:00pm 27.7 27.4 24.9 85 2.0 ENE 35 41 19 22 1011.7 1011.7 0.0
25/05:30pm 27.5 26.4 24.1 82 2.3 ENE 37 41 20 22 1011.7 - 0.0
25/05:00pm 27.8 27.5 24.8 84 2.1 ENE 35 43 19 23 1011.6 - 0.0
25/04:30pm 27.7 26.8 23.9 80 2.6 ENE 35 41 19 22 1011.6 - 0.0
25/04:00pm 28.2 27.4 24.0 78 2.9 ENE 35 41 19 22 1011.8 - 0.0
25/03:30pm 28.5 27.5 23.0 72 3.8 E 33 41 18 22 1012.1 - 0.0
25/03:00pm 28.8 29.1 24.8 79 2.8 E 32 37 17 20 1012.2 1012.2 0.0
25/02:30pm 29.1 29.5 24.4 76 3.3 E 30 35 16 19 1012.5 - 0.0
25/02:00pm 29.3 29.3 23.7 72 3.9 E 30 35 16 19 1012.8 - 0.0
25/01:30pm 29.3 30.1 25.1 78 2.9 E 30 35 16 19 1013.3 - 0.0
25/01:00pm 29.1 30.0 25.3 80 2.7 E 30 35 16 19 1013.5 - 0.0
25/12:30pm 29.2 30.5 25.2 79 2.8 E 28 33 15 18 1013.8 - 0.0
25/12:00pm 29.1 30.0 24.6 76 3.1 E 28 35 15 19 1014.1 1014.1 0.0
25/11:30am 29.0 29.2 24.1 75 3.4 E 30 35 16 19 1014.4 - 0.0
25/11:00am 28.7 29.3 24.7 79 2.8 E 30 33 16 18 1014.6 - 0.0
25/10:30am 28.2 29.1 25.2 84 2.1 E 30 33 16 18 1014.9 - 0.0
25/10:00am 28.4 29.4 24.8 81 2.5 E 28 32 15 17 1014.9 - 0.0
25/09:30am 28.1 29.1 24.7 82 2.4 E 28 33 15 18 1015.0 - 0.0
25/09:00am 28.1 29.1 24.7 82 2.4 ESE 28 33 15 18 1015.0 1015.0 0.0
25/08:30am 27.5 28.5 24.7 85 1.9 ESE 28 35 15 19 1015.1 - 0.0
25/08:00am 27.7 29.4 24.7 84 2.1 E 24 30 13 16 1014.8 - 0.0
25/07:30am 27.0 28.3 24.6 87 1.7 ESE 26 30 14 16 1014.4 - 0.0
25/07:00am 26.8 27.6 24.5 87 1.6 ESE 28 32 15 17 1013.9 - 0.0
25/06:30am 26.4 27.9 25.0 92 1.0 ESE 26 35 14 19 1013.6 - 0.0
25/06:00am 26.3 28.3 25.1 93 0.8 ESE 24 30 13 16 1013.2 1013.2 0.0
25/05:30am 26.5 27.6 24.9 91 1.1 E 28 33 15 18 1012.9 - 0.0
25/05:00am 26.6 28.1 25.6 94 0.7 E 28 33 15 18 1012.5 - 0.0
25/04:30am 26.7 27.2 25.5 93 0.8 E 33 39 18 21 1012.2 - 0.0
25/04:00am 26.8 27.0 25.6 93 0.8 E 35 41 19 22 1011.7 - 0.0
25/03:30am 26.6 26.2 25.2 92 1.0 E 37 43 20 23 1011.5 - 0.0
25/03:00am 26.8 26.2 25.6 93 0.8 E 39 44 21 24 1011.8 1011.8 0.0
25/02:30am 27.0 26.2 25.8 93 0.8 E 41 48 22 26 1011.9 - 0.0
25/02:00am 26.7 26.4 25.5 93 0.8 E 37 44 20 24 1012.2 - 0.0
25/01:30am 27.0 26.7 25.4 91 1.1 E 37 44 20 24 1012.9 - 0.0
25/01:00am 26.8 26.5 25.4 92 1.0 E 37 44 20 24 1013.0 - 0.0
25/12:30am 26.8 26.2 25.6 93 0.8 ENE 39 46 21 25 1013.2 - 0.0
25/12:00am 27.2 27.5 26.3 95 0.6 ENE 37 43 20 23 1013.4 1013.4 0.0
 
Date/Time
CST
Temp
°C
App
Temp
°C
Dew
Point
Rel
Hum
%
Delta-T
°C
Wind Press
QNH
hPa
Press
MSL
hPa
Rain
since 9 am
mm
Dir
 
Spd
km/h
Gust
km/h
Spd
kts
Gust
kts
24/11:30pm 27.3 28.1 26.6 96 0.5 ENE 35 41 19 22 1013.2 - 0.0
24/11:00pm 27.2 27.5 26.3 95 0.6 ENE 37 41 20 22 1013.1 - 0.0
24/10:30pm 27.5 28.5 26.3 93 0.9 NE 33 39 18 21 1013.1 - 0.0
24/10:00pm 27.3 28.5 25.7 91 1.1 NE 30 35 16 19 1012.5 - 0.0
24/09:30pm 27.4 28.4 26.3 94 0.8 NE 33 39 18 21 1012.3 - 0.0
24/09:00pm 27.3 27.8 26.1 93 0.8 NE 35 41 19 22 1012.0 1012.0 0.0
24/08:30pm 27.5 27.6 26.1 92 1.0 NE 37 44 20 24 1011.7 - 0.0
24/08:00pm 27.3 27.6 25.7 91 1.1 NE 35 43 19 23 1011.3 - 0.0
24/07:30pm 27.4 27.0 25.8 91 1.1 NE 39 43 21 23 1010.9 - 0.0
24/07:00pm 27.5 27.1 25.9 91 1.1 ENE 39 44 21 24 1010.7 - 0.0
24/06:30pm 27.3 26.4 25.7 91 1.1 ENE 41 48 22 26 1010.4 - 0.0
24/06:00pm 27.6 27.5 25.8 90 1.3 ENE 37 44 20 24 1010.2 1010.2 0.0
24/05:30pm 27.6 27.0 25.6 89 1.4 ENE 39 44 21 24 1010.4 - 0.0
24/05:00pm 27.7 27.4 25.5 88 1.5 ENE 37 43 20 23 1010.4 - 0.0
24/04:30pm 28.0 28.3 25.8 88 1.6 ENE 35 41 19 22 1010.4 - 0.0
24/04:00pm 28.1 28.0 25.1 84 2.1 E 35 41 19 22 1010.5 - 0.0
24/03:30pm 28.4 28.8 25.4 84 2.1 E 33 39 18 21 1010.5 - 0.0
24/03:00pm 28.6 29.2 25.6 84 2.1 E 33 39 18 21 1010.9 1010.9 0.0
24/02:30pm 28.9 30.2 25.9 84 2.1 E 30 39 16 21 1011.4 - 0.0
24/02:00pm 28.6 29.0 25.0 81 2.5 E 32 39 17 21 1011.5 - 0.0
24/01:30pm 29.3 30.4 26.1 83 2.3 E 32 37 17 20 1012.0 - 0.0
24/01:00pm 28.7 29.1 25.3 82 2.4 E 33 39 18 21 1012.3 - 0.0
24/12:30pm 29.0 30.0 26.2 85 2.0 E 33 37 18 20 1012.8 - 0.0
24/12:00pm 28.8 29.9 26.2 86 1.8 E 32 35 17 19 1013.4 1013.4 0.0
24/11:30am 28.7 29.8 26.1 86 1.8 E 32 35 17 19 1013.7 - 0.0
24/11:00am 28.6 30.1 26.2 87 1.7 E 30 35 16 19 1013.8 - 0.0
24/10:30am 28.7 30.3 26.3 87 1.7 E 30 35 16 19 1014.0 - 0.0
24/10:00am 28.6 31.0 26.4 88 1.6 E 26 30 14 16 1014.0 - 0.0
24/09:30am 28.3 30.5 26.1 88 1.6 E 26 32 14 17 1014.1 - 0.0
24/09:00am 27.8 29.6 25.4 87 1.7 E 26 30 14 16 1014.3 1014.3 0.0
24/08:30am 27.6 30.6 25.6 89 1.4 E 20 24 11 13 1014.1 - 0.0
24/08:00am 27.6 30.0 25.8 90 1.3 E 24 28 13 15 1013.8 - 0.0
24/07:30am 27.5 30.0 25.9 91 1.1 E 24 28 13 15 1013.5 - 0.0
24/07:00am 27.3 29.8 25.9 92 1.0 E 24 30 13 16 1013.3 - 0.0
24/06:30am 26.8 28.7 25.6 93 0.8 E 26 30 14 16 1013.1 - 0.0
24/06:00am 27.0 29.1 25.9 94 0.8 E 26 32 14 17 1012.6 1012.6 0.0
24/05:30am 26.7 28.0 25.3 92 1.0 E 28 32 15 17 1012.5 - 0.0
24/05:00am 27.0 28.7 26.5 97 0.4 E 30 35 16 19 1012.1 - 0.0
24/04:30am 26.8 28.1 26.5 98 0.2 E 32 35 17 19 1011.7 - 0.0
24/04:00am 27.1 29.6 27.1 100 0.0 ENE 28 32 15 17 1011.5 - 0.0
24/03:30am 26.8 28.7 26.8 100 0.0 ENE 30 35 16 19 1010.9 - 0.0
24/03:00am 26.9 28.8 26.7 99 0.1 ENE 30 33 16 18 1011.1 1011.1 0.0
24/02:30am 27.1 29.6 27.1 100 0.0 ENE 28 32 15 17 1011.7 - 0.0
24/02:00am 27.1 28.7 26.9 99 0.1 ENE 32 35 17 19 1012.0 - 0.0
24/01:30am 27.2 29.2 26.9 98 0.2 ENE 30 32 16 17 1012.3 - 0.0
24/01:00am 27.0 29.5 26.5 97 0.4 ENE 26 30 14 16 1012.6 - 0.0
24/12:30am 27.3 29.1 26.6 96 0.5 E 30 35 16 19 1013.2 - 0.0
24/12:00am 27.7 29.8 27.0 96 0.5 ENE 30 35 16 19 1013.6 1013.6 0.0
 
Date/Time
CST
Temp
°C
App
Temp
°C
Dew
Point
Rel
Hum
%
Delta-T
°C
Wind Press
QNH
hPa
Press
MSL
hPa
Rain
since 9 am
mm
Dir
 
Spd
km/h
Gust
km/h
Spd
kts
Gust
kts
23/11:30pm 27.4 28.6 26.3 94 0.8 ENE 32 35 17 19 1013.7 - 0.0
23/11:00pm 27.3 28.6 26.4 95 0.6 ENE 32 35 17 19 1013.6 - 0.0
23/10:30pm 27.6 28.7 26.9 96 0.5 ENE 35 41 19 22 1013.3 - 0.0
23/10:00pm 27.5 27.6 26.6 95 0.6 ENE 39 43 21 23 1012.9 - 0.0
23/09:30pm 27.5 28.7 26.6 95 0.6 ENE 33 37 18 20 1012.5 - 0.0
23/09:00pm 27.6 28.8 26.5 94 0.8 NE 33 39 18 21 1012.3 1012.3 0.0
23/08:30pm 27.4 28.6 26.3 94 0.8 NE 32 37 17 20 1011.8 - 0.0
23/08:00pm 27.7 28.9 26.6 94 0.8 ENE 33 39 18 21 1011.6 - 0.0
23/07:30pm 27.8 28.9 26.4 92 1.0 NE 33 37 18 20 1011.3 - 0.0
23/07:00pm 27.6 28.9 26.4 93 0.9 ENE 32 37 17 20 1011.0 - 0.0
23/06:30pm 27.7 28.9 26.3 92 1.0 ENE 32 37 17 20 1010.8 - 0.0
23/06:00pm 27.7 28.5 25.7 89 1.4 ENE 32 35 17 19 1010.4 1010.4 0.0
23/05:30pm 27.7 28.4 25.5 88 1.5 ENE 32 37 17 20 1010.1 - 0.0
23/05:00pm 27.9 29.1 25.7 88 1.6 NE 30 33 16 18 1009.9 - 0.0
23/04:30pm 28.0 29.6 25.8 88 1.6 ENE 28 32 15 17 1010.0 - 0.0
23/04:00pm 28.4 30.8 26.4 89 1.4 ENE 26 30 14 16 1010.3 - 0.0
23/03:30pm 28.7 31.2 25.9 85 2.0 E 24 30 13 16 1010.6 - 0.0
23/03:00pm 28.7 30.5 25.5 83 2.3 E 26 30 14 16 1011.0 1011.0 0.0
23/02:30pm 29.2 31.5 26.2 84 2.1 E 26 30 14 16 1011.3 - 0.0
23/02:00pm 28.9 30.9 25.7 83 2.3 E 26 32 14 17 1011.5 - 0.0
23/01:30pm 29.0 30.9 25.6 82 2.4 E 26 32 14 17 1011.8 - 0.0
23/01:00pm 29.3 31.1 26.1 83 2.3 E 28 33 15 18 1012.3 - 0.0
23/12:30pm 29.6 31.4 26.6 84 2.1 E 30 33 16 18 1012.7 - 0.0
23/12:00pm 29.0 30.4 26.0 84 2.1 E 30 33 16 18 1013.1 1013.1 0.0
23/11:30am 28.9 30.2 25.9 84 2.1 E 30 35 16 19 1013.4 - 0.0
23/11:00am 29.0 30.1 25.6 82 2.4 ESE 30 35 16 19 1013.7 - 0.0
23/10:00am 29.0 31.5 26.0 84 2.1 ESE 24 30 13 16 1014.0 - 0.0
23/09:30am 28.6 31.3 25.6 84 2.1 ESE 22 28 12 15 1014.0 - 0.0
23/09:00am 28.0 31.0 25.6 87 1.7 E 20 24 11 13 1014.0 1014.0 0.0
23/08:30am 27.7 30.2 25.3 87 1.7 E 22 26 12 14 1014.1 - 0.0
23/08:00am 27.5 30.0 25.3 88 1.5 E 22 26 12 14 1013.9 - 0.0
23/07:30am 27.2 29.1 25.0 88 1.5 E 24 28 13 15 1013.7 - 0.0
23/07:00am 26.8 28.7 25.0 90 1.3 E 24 28 13 15 1013.4 - 0.0
23/06:30am 26.8 28.3 25.0 90 1.3 E 26 30 14 16 1013.0 - 0.0
23/06:00am 26.8 28.4 25.8 94 0.7 E 28 32 15 17 1012.8 1012.8 0.0
23/05:30am 27.3 29.3 26.4 95 0.6 E 28 33 15 18 1012.3 - 0.0
23/05:00am 26.9 29.2 26.2 96 0.5 E 26 30 14 16 1011.9 - 0.0
23/04:30am 26.9 28.7 26.0 95 0.6 E 28 32 15 17 1011.6 - 0.0
23/04:00am 26.9 28.6 25.9 94 0.7 ENE 28 33 15 18 1011.4 - 0.0
23/03:30am 27.1 29.5 26.4 96 0.5 E 26 30 14 16 1011.8 - 0.0
23/03:00am 27.0 29.1 26.5 97 0.4 E 28 32 15 17 1012.1 1012.1 0.0
23/02:30am 26.9 29.5 26.6 98 0.2 E 26 32 14 17 1012.4 - 0.0
23/02:00am 27.0 29.7 26.3 96 0.5 E 24 28 13 15 1012.5 - 0.0
23/01:30am 27.1 29.8 26.2 95 0.6 E 24 28 13 15 1012.8 - 0.0
23/01:00am 27.0 28.8 26.1 95 0.6 ENE 28 32 15 17 1013.1 - 0.0
23/12:30am 26.9 28.9 25.7 93 0.8 ENE 26 33 14 18 1013.2 - 0.0
23/12:00am 27.1 29.5 26.4 96 0.5 ENE 26 30 14 16 1013.4 1013.4 0.0
 
Date/Time
CST
Temp
°C
App
Temp
°C
Dew
Point
Rel
Hum
%
Delta-T
°C
Wind Press
QNH
hPa
Press
MSL
hPa
Rain
since 9 am
mm
Dir
 
Spd
km/h
Gust
km/h
Spd
kts
Gust
kts
22/11:30pm 27.2 29.7 26.5 96 0.5 ENE 26 32 14 17 1013.6 - 0.0
22/11:00pm 27.4 29.9 26.5 95 0.6 ENE 26 32 14 17 1013.5 - 0.0

Other Formats:

Comma delimited format used in spreadsheet applications
http://www.bom.gov.au/fwo/IDD60801/IDD60801.94135.axf

JavaScript Object Notation format (JSON) in row-major order
http://www.bom.gov.au/fwo/IDD60801/IDD60801.94135.json